Time;durP1;ratioP1;P1;durP2;ratioP2;P2;SDS_P1;SDS_P2;PMS_P1;PMS_P2;Temp;Humidity;BMP_temperature;BMP_pressure;BME280_temperature;BME280_humidity;BME280_pressure;Samples;Min_cycle;Max_cycle;Signal;HPM_P1;HPM_P2
2023/11/15 00:00:25;;;;;;;2.90;0.50;;;;;;;10.79;94.56;97587.50;5059957;28;20221;-79
2023/11/15 00:02:51;;;;;;;1.63;0.57;;;;;;;10.76;95.05;97588.59;5042912;28;20238;-79
2023/11/15 00:05:18;;;;;;;2.07;0.70;;;;;;;10.73;95.14;97596.78;5060732;28;20219;-79
2023/11/15 00:07:46;;;;;;;0.53;0.40;;;;;;;10.72;95.33;97605.69;5060098;28;20294;-79
2023/11/15 00:10:13;;;;;;;1.83;0.70;;;;;;;10.68;95.33;97611.28;5059775;28;20209;-79
2023/11/15 00:12:40;;;;;;;1.80;0.60;;;;;;;10.74;94.71;97603.75;5060210;28;20259;-79
2023/11/15 00:15:07;;;;;;;1.43;0.53;;;;;;;10.81;94.40;97598.81;5059382;28;20318;-79
2023/11/15 00:17:36;;;;;;;0.40;0.40;;;;;;;10.86;93.57;97601.94;5060009;28;20208;-79
2023/11/15 00:20:03;;;;;;;0.60;0.30;;;;;;;10.87;92.96;97616.81;5059609;28;20209;-79
2023/11/15 00:22:31;;;;;;;1.60;0.50;;;;;;;10.86;92.82;97609.84;5060053;28;20271;-79
2023/11/15 00:24:59;;;;;;;2.00;0.60;;;;;;;10.88;93.13;97618.53;5059591;28;20220;-79
2023/11/15 00:27:26;;;;;;;0.53;0.40;;;;;;;10.83;94.40;97636.56;5059423;28;20213;-79
2023/11/15 00:29:52;;;;;;;1.00;0.50;;;;;;;10.79;95.25;97643.03;5059385;28;20750;-79
2023/11/15 00:32:20;;;;;;;3.07;0.60;;;;;;;10.88;94.47;97650.25;5059271;28;20229;-79
2023/11/15 00:34:46;;;;;;;0.40;0.40;;;;;;;10.93;95.07;97653.34;5059315;28;20280;-79
2023/11/15 00:37:13;;;;;;;1.20;0.60;;;;;;;10.94;95.48;97671.75;5059115;28;20639;-79
2023/11/15 00:39:40;;;;;;;1.03;0.60;;;;;;;10.93;96.88;97695.66;5059038;28;20224;-79
2023/11/15 00:42:08;;;;;;;1.77;0.43;;;;;;;10.89;98.78;97704.81;5059591;28;20244;-79
2023/11/15 00:44:35;;;;;;;1.50;0.70;;;;;;;10.87;100.00;97701.41;5059171;28;20207;-79
2023/11/15 00:47:03;;;;;;;1.57;0.60;;;;;;;10.77;100.00;97714.50;5058939;28;20263;-79
2023/11/15 00:49:29;;;;;;;0.77;0.50;;;;;;;10.74;100.00;97714.75;5058807;28;20590;-79
2023/11/15 00:51:56;;;;;;;4.10;0.57;;;;;;;10.68;100.00;97730.22;5058432;28;20329;-79
2023/11/15 00:54:23;;;;;;;3.63;0.97;;;;;;;10.62;100.00;97743.91;5056916;28;20235;-79
2023/11/15 00:56:49;;;;;;;1.47;0.73;;;;;;;10.44;100.00;97771.69;5056885;28;20229;-79
2023/11/15 00:59:21;;;;;;;2.37;0.70;;;;;;;10.21;100.00;97769.94;5057274;28;20205;-79
2023/11/15 01:01:57;;;;;;;2.20;0.70;;;;;;;9.98;100.00;97789.22;5056530;28;20316;-79
2023/11/15 01:04:24;;;;;;;1.40;0.80;;;;;;;9.78;100.00;97793.25;5057312;28;20200;-79
2023/11/15 01:06:51;;;;;;;2.20;0.70;;;;;;;9.62;100.00;97786.56;5057784;28;20223;-79
2023/11/15 01:09:18;;;;;;;1.00;0.77;;;;;;;9.49;100.00;97769.91;5056126;28;20219;-79
2023/11/15 01:11:45;;;;;;;4.30;1.10;;;;;;;9.38;100.00;97767.19;5057344;28;20313;-79
2023/11/15 01:14:12;;;;;;;2.33;0.73;;;;;;;9.26;100.00;97765.41;5056981;28;20318;-79
2023/11/15 01:16:40;;;;;;;1.87;0.90;;;;;;;9.12;100.00;97770.78;5057245;28;20240;-79
2023/11/15 01:19:06;;;;;;;1.63;0.73;;;;;;;9.02;100.00;97781.13;5057422;28;20218;-79
2023/11/15 01:21:33;;;;;;;1.20;1.00;;;;;;;8.98;100.00;97790.19;5056401;28;20348;-79
2023/11/15 01:23:59;;;;;;;2.13;0.90;;;;;;;8.91;100.00;97783.66;5057073;28;20582;-79
2023/11/15 01:26:26;;;;;;;1.47;1.00;;;;;;;8.98;100.00;97790.19;5056995;28;20289;-79
2023/11/15 01:28:54;;;;;;;2.27;1.00;;;;;;;8.98;100.00;97797.22;5056453;28;20206;-79
2023/11/15 01:31:21;;;;;;;2.47;0.87;;;;;;;8.96;100.00;97800.00;5057420;28;20225;-79
2023/11/15 01:33:48;;;;;;;2.60;0.70;;;;;;;9.01;100.00;97810.22;5056328;28;20235;-79
2023/11/15 01:36:16;;;;;;;3.40;0.80;;;;;;;9.04;100.00;97812.63;5056784;28;20235;-79
2023/11/15 01:38:42;;;;;;;1.73;1.00;;;;;;;9.05;100.00;97828.34;5057164;28;20268;-79
2023/11/15 01:41:09;;;;;;;2.70;0.73;;;;;;;9.10;100.00;97814.84;5056490;28;20300;-79
2023/11/15 01:43:35;;;;;;;1.27;0.80;;;;;;;9.13;100.00;97810.19;5056070;28;20699;-79
2023/11/15 01:46:03;;;;;;;1.43;0.80;;;;;;;9.10;100.00;97817.47;5056895;28;20215;-79
2023/11/15 01:48:30;;;;;;;3.17;0.80;;;;;;;9.09;100.00;97815.81;5057768;28;20563;-79
2023/11/15 01:50:59;;;;;;;1.50;0.70;;;;;;;9.09;100.00;97821.94;5057690;28;20241;-79
2023/11/15 01:53:28;;;;;;;1.47;0.90;;;;;;;9.20;100.00;97826.47;5057149;28;20211;-79
2023/11/15 01:55:55;;;;;;;4.33;0.97;;;;;;;9.30;100.00;97824.91;5057542;28;20238;-79
2023/11/15 01:58:25;;;;;;;2.03;0.73;;;;;;;9.30;100.00;97833.63;5057929;28;20230;-79
2023/11/15 02:00:51;;;;;;;1.77;0.80;;;;;;;9.31;100.00;97839.75;5057320;28;20215;-79
2023/11/15 02:03:18;;;;;;;3.57;0.77;;;;;;;9.30;100.00;97838.91;5057288;28;20214;-80
2023/11/15 02:05:46;;;;;;;1.90;0.90;;;;;;;9.32;100.00;97842.31;5056890;28;20244;-79
2023/11/15 02:08:13;;;;;;;2.97;1.07;;;;;;;9.31;100.00;97845.03;5056758;28;20225;-80
2023/11/15 02:10:41;;;;;;;3.23;0.93;;;;;;;9.29;100.00;97854.81;5056807;28;20237;-80
2023/11/15 02:13:20;;;;;;;2.53;0.77;;;;;;;9.30;100.00;97854.72;5057196;28;20211;-79
2023/11/15 02:15:46;;;;;;;1.97;0.80;;;;;;;9.35;100.00;97854.41;5057042;28;20316;-80
2023/11/15 02:18:12;;;;;;;1.50;0.87;;;;;;;9.38;100.00;97843.66;5057491;28;20242;-79
2023/11/15 02:20:39;;;;;;;2.30;0.90;;;;;;;9.48;100.00;97852.63;5057237;28;20233;-79
2023/11/15 02:23:06;;;;;;;1.27;0.80;;;;;;;9.48;100.00;97865.81;5056578;28;20213;-80
2023/11/15 02:25:34;;;;;;;2.00;0.80;;;;;;;9.43;100.00;97860.03;5056644;28;20218;-80
2023/11/15 02:28:03;;;;;;;1.47;0.80;;;;;;;9.37;100.00;97869.19;5056621;28;20218;-80
2023/11/15 02:30:29;;;;;;;1.57;0.93;;;;;;;9.35;100.00;97872.88;5056962;28;20274;-80
2023/11/15 02:32:56;;;;;;;1.43;0.90;;;;;;;9.30;100.00;97877.63;5056667;28;20234;-80
2023/11/15 02:35:22;;;;;;;4.00;0.90;;;;;;;9.31;100.00;97887.22;5056469;28;20683;-80
2023/11/15 02:37:50;;;;;;;4.53;0.80;;;;;;;9.28;100.00;97887.41;5056800;28;20233;-80
2023/11/15 02:40:16;;;;;;;1.83;1.10;;;;;;;9.25;100.00;97882.38;5057030;28;20222;-80
2023/11/15 02:42:44;;;;;;;1.50;0.90;;;;;;;9.20;100.00;97895.00;5056527;28;20229;-80
2023/11/15 02:45:11;;;;;;;3.13;0.97;;;;;;;9.18;100.00;97892.47;5056792;28;20212;-80
2023/11/15 02:47:37;;;;;;;3.00;1.30;;;;;;;9.19;100.00;97878.34;5057459;28;20230;-80
2023/11/15 02:50:05;;;;;;;1.93;1.00;;;;;;;9.15;100.00;97887.41;5056706;28;20210;-80
2023/11/15 02:52:31;;;;;;;1.00;0.87;;;;;;;9.07;100.00;97889.72;5056763;28;20230;-80
2023/11/15 02:54:58;;;;;;;2.90;1.10;;;;;;;9.03;100.00;97892.66;5056553;28;20211;-80
2023/11/15 02:57:24;;;;;;;2.13;0.90;;;;;;;9.02;100.00;97901.53;5056832;28;20601;-80
2023/11/15 02:59:52;;;;;;;2.60;0.80;;;;;;;9.10;100.00;97904.47;5056803;28;20209;-80
2023/11/15 03:02:19;;;;;;;2.43;0.90;;;;;;;9.11;100.00;97907.03;5057539;28;20237;-80
2023/11/15 03:04:45;;;;;;;2.40;1.17;;;;;;;9.16;100.00;97909.34;5057072;28;20219;-80
2023/11/15 03:07:12;;;;;;;1.20;0.90;;;;;;;9.15;100.00;97907.66;5056870;28;20207;-80
2023/11/15 03:09:38;;;;;;;1.97;1.00;;;;;;;9.07;100.00;97904.69;5057145;28;20206;-80
2023/11/15 03:12:06;;;;;;;4.47;0.80;;;;;;;9.04;100.00;97910.16;5056803;28;20243;-80
2023/11/15 03:14:32;;;;;;;3.77;1.00;;;;;;;9.02;100.00;97910.28;5056742;28;20212;-80
2023/11/15 03:17:07;;;;;;;4.30;0.80;;;;;;;9.05;100.00;97911.88;5056478;28;20702;-80
2023/11/15 03:19:33;;;;;;;3.03;1.00;;;;;;;9.06;100.00;97910.91;5057124;28;20641;-80
2023/11/15 03:22:00;;;;;;;0.90;0.90;;;;;;;9.00;100.00;97914.78;5056764;28;20227;-80
2023/11/15 03:24:26;;;;;;;1.03;0.80;;;;;;;8.94;100.00;97925.75;5056173;28;20205;-80
2023/11/15 03:26:54;;;;;;;3.80;1.10;;;;;;;8.90;100.00;97929.53;5055900;28;20203;-80
2023/11/15 03:29:20;;;;;;;5.77;1.03;;;;;;;8.95;100.00;97931.88;5055555;28;20298;-80
2023/11/15 03:31:47;;;;;;;2.57;0.70;;;;;;;9.02;100.00;97922.59;5055278;28;20234;-80
2023/11/15 03:34:15;;;;;;;2.93;0.80;;;;;;;9.09;100.00;97935.28;5059376;28;20225;-80
2023/11/15 03:36:42;;;;;;;0.93;0.60;;;;;;;9.16;100.00;97920.75;5059703;28;20695;-80
2023/11/15 03:39:09;;;;;;;1.10;0.70;;;;;;;9.29;100.00;97920.75;5058692;28;20210;-80
2023/11/15 03:41:36;;;;;;;1.57;0.90;;;;;;;9.42;100.00;97921.63;5058977;28;20315;-80
2023/11/15 03:44:02;;;;;;;1.70;0.73;;;;;;;9.47;100.00;97956.44;5058375;28;20209;-79
2023/11/15 03:46:29;;;;;;;1.47;0.60;;;;;;;9.45;100.00;97942.53;5058732;28;20206;-80
2023/11/15 03:48:55;;;;;;;1.40;0.70;;;;;;;9.38;100.00;97949.16;5058960;28;20226;-80
2023/11/15 03:51:23;;;;;;;2.97;0.70;;;;;;;9.34;100.00;97953.78;5058260;28;20576;-80
2023/11/15 03:53:53;;;;;;;1.70;0.57;;;;;;;9.34;100.00;97958.22;5058468;28;20213;-80
2023/11/15 03:56:20;;;;;;;3.23;0.80;;;;;;;9.40;100.00;97969.22;5059164;28;20240;-80
2023/11/15 03:58:46;;;;;;;2.00;0.73;;;;;;;9.39;100.00;97977.22;5059251;28;20303;-80
2023/11/15 04:01:14;;;;;;;5.00;0.97;;;;;;;9.44;100.00;97983.03;5058959;28;20233;-80
2023/11/15 04:03:40;;;;;;;4.20;0.80;;;;;;;9.46;100.00;97981.13;5058680;28;20218;-80
2023/11/15 04:06:07;;;;;;;3.03;0.80;;;;;;;9.45;100.00;97997.91;5059175;28;20215;-80
2023/11/15 04:08:36;;;;;;;1.63;0.80;;;;;;;9.49;100.00;98002.03;5058812;28;20584;-80
2023/11/15 04:11:04;;;;;;;2.70;0.60;;;;;;;9.48;100.00;97989.81;5058711;28;20243;-80
2023/11/15 04:13:30;;;;;;;1.23;0.77;;;;;;;9.51;100.00;98000.13;5058556;28;20209;-80
2023/11/15 04:15:57;;;;;;;3.10;1.03;;;;;;;9.49;100.00;97997.59;5059015;28;20209;-80
2023/11/15 04:18:23;;;;;;;2.43;0.80;;;;;;;9.48;100.00;97995.09;5059330;28;20211;-80
2023/11/15 04:20:50;;;;;;;3.07;0.80;;;;;;;9.45;100.00;97995.28;5059493;28;20290;-80
2023/11/15 04:23:16;;;;;;;1.40;0.70;;;;;;;9.42;100.00;97998.97;5058872;28;20211;-80
2023/11/15 04:25:44;;;;;;;4.07;1.00;;;;;;;9.42;100.00;98003.41;5059313;28;20223;-80
2023/11/15 04:28:12;;;;;;;4.83;1.60;;;;;;;9.30;100.00;98002.41;5059188;28;20621;-80
2023/11/15 04:30:39;;;;;;;2.97;0.93;;;;;;;9.12;100.00;98002.78;5059443;28;20211;-80
2023/11/15 04:33:05;;;;;;;2.33;0.70;;;;;;;9.05;100.00;98014.69;5058735;28;20218;-80
2023/11/15 04:35:31;;;;;;;2.43;1.10;;;;;;;9.02;100.00;98022.78;5059541;28;20226;-80
2023/11/15 04:37:58;;;;;;;2.60;1.10;;;;;;;8.94;100.00;98025.91;5058680;28;20238;-80
2023/11/15 04:40:26;;;;;;;2.33;1.00;;;;;;;8.91;100.00;98031.38;5058672;28;20216;-80
2023/11/15 04:42:54;;;;;;;2.87;1.00;;;;;;;8.85;100.00;98030.91;5058782;28;20244;-80
2023/11/15 04:45:20;;;;;;;7.00;1.10;;;;;;;8.91;100.00;98036.66;5059123;28;20218;-80
2023/11/15 04:47:47;;;;;;;2.70;1.20;;;;;;;9.02;100.00;98039.44;5059262;28;20204;-79
2023/11/15 04:50:13;;;;;;;3.77;1.20;;;;;;;9.11;100.00;98043.28;5058806;28;20208;-79
2023/11/15 04:52:45;;;;;;;2.80;1.00;;;;;;;9.17;100.00;98048.16;5059006;28;20256;-79
2023/11/15 04:55:12;;;;;;;1.30;0.70;;;;;;;9.26;100.00;98048.41;5058788;28;20293;-79
2023/11/15 04:57:39;;;;;;;4.03;0.80;;;;;;;9.37;100.00;98058.25;5059190;28;20552;-79
2023/11/15 05:00:10;;;;;;;4.60;1.00;;;;;;;9.38;100.00;98067.84;5059285;28;20310;-79
2023/11/15 05:02:37;;;;;;;2.30;0.93;;;;;;;9.43;100.00;98068.41;5059045;28;20231;-79
2023/11/15 05:05:05;;;;;;;5.47;1.53;;;;;;;9.45;100.00;98070.00;5058950;28;20226;-79
2023/11/15 05:07:32;;;;;;;1.70;0.87;;;;;;;9.46;100.00;98074.31;5059018;28;20231;-79
2023/11/15 05:09:59;;;;;;;3.03;0.90;;;;;;;9.51;100.00;98068.72;5058875;28;20233;-79
2023/11/15 05:12:26;;;;;;;2.30;0.70;;;;;;;9.54;100.00;98071.19;5058717;28;20572;-80
2023/11/15 05:14:52;;;;;;;3.20;1.30;;;;;;;9.52;100.00;98079.19;5058891;28;20600;-79
2023/11/15 05:17:20;;;;;;;3.13;0.80;;;;;;;9.47;100.00;98077.78;5059579;28;20602;-79
2023/11/15 05:19:47;;;;;;;1.67;0.80;;;;;;;9.42;100.00;98072.81;5059661;28;20214;-79
2023/11/15 05:22:13;;;;;;;2.20;1.03;;;;;;;9.37;100.00;98077.53;5058881;28;20225;-80
2023/11/15 05:24:40;;;;;;;2.27;0.87;;;;;;;9.38;100.00;98081.03;5058959;28;20657;-79
2023/11/15 05:27:06;;;;;;;2.67;1.03;;;;;;;9.33;100.00;98072.56;5059227;28;20210;-79
2023/11/15 05:29:33;;;;;;;1.83;0.80;;;;;;;9.27;100.00;98080.88;5059288;28;20641;-79
2023/11/15 05:31:59;;;;;;;1.53;1.00;;;;;;;9.21;100.00;98081.28;5059620;28;20230;-80
2023/11/15 05:34:28;;;;;;;0.77;0.70;;;;;;;9.17;100.00;98080.63;5058742;28;20218;-79
2023/11/15 05:36:55;;;;;;;0.80;0.60;;;;;;;9.13;100.00;98076.50;5059241;28;20236;-79
2023/11/15 05:39:22;;;;;;;2.37;1.30;;;;;;;9.15;100.00;98079.03;5059545;28;20210;-79
2023/11/15 05:41:48;;;;;;;1.00;0.80;;;;;;;9.10;100.00;98089.03;5059215;28;20571;-79
2023/11/15 05:44:15;;;;;;;3.00;0.93;;;;;;;9.07;100.00;98083.97;5058470;28;20211;-79
2023/11/15 05:46:41;;;;;;;3.20;1.27;;;;;;;9.03;100.00;98093.84;5059018;28;20212;-79
2023/11/15 05:49:08;;;;;;;3.17;0.80;;;;;;;9.03;100.00;98103.53;5059247;28;20624;-79
2023/11/15 05:51:36;;;;;;;2.10;1.20;;;;;;;9.06;100.00;98098.09;5058403;28;20599;-80
2023/11/15 05:54:04;;;;;;;3.00;1.00;;;;;;;9.05;100.00;98101.69;5058484;28;20277;-80
2023/11/15 05:56:31;;;;;;;1.97;0.87;;;;;;;9.05;100.00;98093.78;5058135;28;20207;-79
2023/11/15 05:58:57;;;;;;;1.07;0.97;;;;;;;9.07;100.00;98105.06;5058518;28;20207;-79
2023/11/15 06:01:24;;;;;;;6.00;1.30;;;;;;;9.10;100.00;98115.38;5058159;28;20234;-79
2023/11/15 06:03:51;;;;;;;3.93;1.10;;;;;;;9.09;100.00;98108.44;5058843;28;20253;-79
2023/11/15 06:06:17;;;;;;;4.80;1.40;;;;;;;9.13;100.00;98109.94;5059936;28;20219;-79
2023/11/15 06:08:45;;;;;;;2.33;1.57;;;;;;;9.13;100.00;98102.84;5058880;28;20218;-81
2023/11/15 06:11:12;;;;;;;3.40;1.00;;;;;;;9.14;100.00;98109.00;5058699;28;20228;-80
2023/11/15 06:13:39;;;;;;;4.57;1.47;;;;;;;9.14;100.00;98111.63;5058638;28;20211;-79
2023/11/15 06:16:07;;;;;;;3.87;1.50;;;;;;;9.13;100.00;98109.94;5059517;28;20693;-79
2023/11/15 06:18:35;;;;;;;2.90;1.00;;;;;;;9.17;100.00;98111.44;5059525;28;20741;-79
2023/11/15 06:21:01;;;;;;;5.80;1.33;;;;;;;9.17;100.00;98117.53;5059479;28;20296;-79
2023/11/15 06:23:28;;;;;;;3.63;1.07;;;;;;;9.20;100.00;98121.78;5059609;28;20208;-81
2023/11/15 06:25:57;;;;;;;4.60;1.17;;;;;;;9.18;100.00;98129.78;5059830;28;20653;-81
2023/11/15 06:28:23;;;;;;;2.13;0.90;;;;;;;9.17;100.00;98137.81;5060284;28;20213;-79
2023/11/15 06:30:50;;;;;;;1.17;0.63;;;;;;;9.21;100.00;98134.00;5059853;28;20207;-79
2023/11/15 06:33:16;;;;;;;3.60;0.87;;;;;;;9.19;100.00;98141.19;5059281;28;20666;-79
2023/11/15 06:35:44;;;;;;;2.20;0.60;;;;;;;9.21;100.00;98128.75;5059768;28;20208;-79
2023/11/15 06:38:10;;;;;;;1.43;0.60;;;;;;;9.13;100.00;98146.84;5059220;28;20685;-79
2023/11/15 06:40:37;;;;;;;2.13;0.60;;;;;;;9.11;100.00;98146.09;5059374;28;20271;-79
2023/11/15 06:43:06;;;;;;;0.80;0.50;;;;;;;9.04;100.00;98147.41;5059449;28;20740;-80
2023/11/15 06:45:33;;;;;;;4.80;0.80;;;;;;;9.03;100.00;98154.50;5059354;28;20211;-80
2023/11/15 06:48:00;;;;;;;0.70;0.53;;;;;;;9.03;100.00;98164.19;5060355;28;20235;-80
2023/11/15 06:50:27;;;;;;;0.93;0.60;;;;;;;9.01;100.00;98158.16;5059221;28;20216;-79
2023/11/15 06:52:53;;;;;;;1.57;0.77;;;;;;;9.01;100.00;98152.88;5060305;28;20232;-79
2023/11/15 06:55:20;;;;;;;1.40;0.70;;;;;;;9.01;100.00;98168.72;5059622;28;20218;-79
2023/11/15 06:57:46;;;;;;;2.20;1.00;;;;;;;8.98;100.00;98174.16;5058487;28;20243;-79
2023/11/15 07:00:15;;;;;;;0.93;0.80;;;;;;;8.91;100.00;98186.03;5058311;28;20242;-79
2023/11/15 07:02:41;;;;;;;2.23;0.73;;;;;;;8.86;100.00;98185.44;5058831;28;20416;-80
2023/11/15 07:05:10;;;;;;;3.20;0.70;;;;;;;8.79;100.00;98189.41;5058958;28;20219;-80
2023/11/15 07:07:37;;;;;;;1.60;0.83;;;;;;;8.72;100.00;98188.09;5060380;28;20229;-80
2023/11/15 07:10:05;;;;;;;4.30;1.00;;;;;;;8.62;100.00;98198.34;5062915;28;20693;-79
2023/11/15 07:12:34;;;;;;;4.73;1.20;;;;;;;8.57;100.00;98205.66;5062803;28;20262;-80
2023/11/15 07:15:01;;;;;;;3.17;1.10;;;;;;;8.56;100.00;98208.41;5063239;28;20217;-81
2023/11/15 07:17:29;;;;;;;4.23;1.00;;;;;;;8.60;100.00;98220.44;5063459;28;20326;-81
2023/11/15 07:19:55;;;;;;;2.53;1.00;;;;;;;8.73;100.00;98211.72;5062799;28;20210;-81
2023/11/15 07:22:22;;;;;;;2.63;1.30;;;;;;;8.80;100.00;98217.44;5061782;28;20237;-81
2023/11/15 07:24:48;;;;;;;2.57;0.90;;;;;;;8.84;100.00;98219.84;5060290;28;20228;-79
2023/11/15 07:27:17;;;;;;;1.80;1.13;;;;;;;8.86;100.00;98217.94;5057692;28;20207;-80
2023/11/15 07:29:45;;;;;;;3.33;1.00;;;;;;;8.96;100.00;98220.84;5057354;28;20279;-80
2023/11/15 07:32:11;;;;;;;4.57;1.10;;;;;;;8.99;100.00;98223.31;5058426;28;20232;-80
2023/11/15 07:34:40;;;;;;;5.83;1.47;;;;;;;9.03;100.00;98224.81;5058118;28;20550;-79
2023/11/15 07:37:08;;;;;;;5.17;1.33;;;;;;;9.06;100.00;98229.91;5018251;28;20303;-79
2023/11/15 07:39:34;;;;;;;5.37;1.53;;;;;;;9.13;100.00;98231.22;5018421;28;20206;-79
2023/11/15 07:42:01;;;;;;;4.20;1.57;;;;;;;9.22;100.00;98238.53;5017754;28;20238;-81
2023/11/15 07:44:30;;;;;;;3.93;1.37;;;;;;;9.26;100.00;98238.28;5019251;28;20671;-79
2023/11/15 07:46:58;;;;;;;6.37;1.33;;;;;;;9.34;100.00;98245.69;5017968;28;20628;-79
2023/11/15 07:49:25;;;;;;;5.93;1.60;;;;;;;9.47;100.00;98246.63;5019437;28;20209;-79
2023/11/15 07:51:53;;;;;;;4.00;1.10;;;;;;;9.62;100.00;98245.66;5017684;28;20738;-79
2023/11/15 07:54:21;;;;;;;4.97;1.33;;;;;;;9.73;100.00;98251.13;5017994;28;20232;-80
2023/11/15 07:56:47;;;;;;;2.53;1.20;;;;;;;9.77;100.00;98249.94;5018531;28;20291;-79
2023/11/15 07:59:14;;;;;;;3.33;1.20;;;;;;;9.84;100.00;98246.00;5018377;28;20240;-80
2023/11/15 08:01:42;;;;;;;5.30;1.23;;;;;;;9.88;100.00;98250.13;5018693;28;20232;-78
2023/11/15 08:04:09;;;;;;;5.60;1.47;;;;;;;9.90;100.00;98250.88;5017548;28;20585;-78
2023/11/15 08:06:37;;;;;;;5.60;1.73;;;;;;;9.83;100.00;98249.56;5021950;28;20235;-79
2023/11/15 08:09:07;;;;;;;3.23;1.10;;;;;;;9.88;100.00;98258.91;5041659;28;20290;-80
2023/11/15 08:11:35;;;;;;;2.77;1.07;;;;;;;9.82;100.00;98253.16;5056359;28;20229;-80
2023/11/15 08:14:06;;;;;;;3.40;1.30;;;;;;;9.81;100.00;98262.03;5056333;28;20228;-80
2023/11/15 08:16:32;;;;;;;2.23;1.20;;;;;;;9.92;100.00;98262.19;5037363;28;20208;-80
2023/11/15 08:18:59;;;;;;;2.50;1.07;;;;;;;10.01;100.00;98258.94;5048450;28;20231;-80
2023/11/15 08:21:26;;;;;;;3.90;1.13;;;;;;;9.99;100.00;98263.47;5035701;28;20646;-81
2023/11/15 08:23:52;;;;;;;3.00;1.10;;;;;;;9.97;100.00;98270.66;5036195;28;20205;-79
2023/11/15 08:26:21;;;;;;;3.13;1.07;;;;;;;9.89;100.00;98272.94;5037014;28;20214;-80
2023/11/15 08:28:47;;;;;;;3.97;1.10;;;;;;;9.85;100.00;98279.38;5036382;28;20208;-80
2023/11/15 08:31:14;;;;;;;3.57;1.20;;;;;;;9.82;100.00;98284.81;5036441;28;20306;-80
2023/11/15 08:33:44;;;;;;;3.57;1.30;;;;;;;9.93;100.00;98287.63;5038002;28;20251;-80
2023/11/15 08:36:12;;;;;;;1.47;1.10;;;;;;;10.03;100.00;98291.38;5057135;28;20248;-80
2023/11/15 08:38:38;;;;;;;4.37;1.00;;;;;;;9.98;100.00;98283.75;5040726;28;20227;-80
2023/11/15 08:41:05;;;;;;;7.73;1.10;;;;;;;9.95;100.00;98283.09;5052457;28;20229;-80
2023/11/15 08:43:33;;;;;;;2.20;1.00;;;;;;;9.98;100.00;98288.19;5054279;28;20603;-80
2023/11/15 08:46:01;;;;;;;2.43;1.00;;;;;;;10.04;100.00;98287.84;5039554;28;20245;-80
2023/11/15 08:48:27;;;;;;;3.47;1.17;;;;;;;10.05;100.00;98289.53;5056311;28;20215;-80
2023/11/15 08:50:54;;;;;;;4.30;1.00;;;;;;;10.10;100.00;98295.34;5053640;28;20213;-80
2023/11/15 08:53:25;;;;;;;1.83;1.00;;;;;;;10.16;100.00;98293.16;5035339;28;20230;-80
2023/11/15 08:55:51;;;;;;;2.37;0.73;;;;;;;10.24;100.00;98292.66;5036986;28;20258;-80
2023/11/15 08:58:18;;;;;;;1.37;0.87;;;;;;;10.28;100.00;98295.00;5041862;28;20613;-80
2023/11/15 09:00:46;;;;;;;3.47;0.90;;;;;;;10.27;100.00;98293.31;5039626;28;20216;-80
2023/11/15 09:03:14;;;;;;;2.93;1.43;;;;;;;10.27;100.00;98292.47;5036094;28;20206;-80
2023/11/15 09:05:44;;;;;;;2.27;1.00;;;;;;;10.25;100.00;98294.34;5037809;28;20220;-80
2023/11/15 09:08:11;;;;;;;1.80;0.77;;;;;;;10.26;100.00;98296.03;5058086;28;20208;-79
2023/11/15 09:10:37;;;;;;;2.23;0.87;;;;;;;10.27;100.00;98308.31;5053251;28;20285;-80
2023/11/15 09:13:08;;;;;;;2.13;0.80;;;;;;;10.40;100.00;98303.94;5020672;28;20762;-79
2023/11/15 09:15:35;;;;;;;1.60;0.63;;;;;;;10.50;100.00;98305.00;5021275;28;20217;-80
2023/11/15 09:18:06;;;;;;;1.73;0.70;;;;;;;10.63;100.00;98306.72;5021651;28;20229;-81
2023/11/15 09:20:34;;;;;;;1.80;0.90;;;;;;;10.66;100.00;98310.97;5022246;28;20303;-80
2023/11/15 09:23:02;;;;;;;0.67;0.60;;;;;;;10.66;100.00;98310.97;5022119;28;20210;-80
2023/11/15 09:25:30;;;;;;;2.10;0.73;;;;;;;10.66;100.00;98308.31;5022922;28;20209;-80
2023/11/15 09:27:58;;;;;;;3.07;0.80;;;;;;;10.68;100.00;98309.06;5022770;28;20243;-80
2023/11/15 09:30:25;;;;;;;3.07;0.77;;;;;;;10.76;100.00;98306.78;5021364;28;20244;-80
2023/11/15 09:32:53;;;;;;;2.50;0.80;;;;;;;10.81;100.00;98309.94;5022774;28;20227;-80
2023/11/15 09:35:23;;;;;;;0.93;0.60;;;;;;;10.88;100.00;98311.25;5021970;28;20223;-80
2023/11/15 09:37:51;;;;;;;2.10;0.77;;;;;;;11.03;100.00;98307.53;5015432;28;20572;-78
2023/11/15 09:40:19;;;;;;;1.57;0.60;;;;;;;11.15;100.00;98306.69;5016861;28;20254;-80
2023/11/15 09:42:47;;;;;;;1.53;0.83;;;;;;;11.15;100.00;98322.56;5019444;28;20235;-80
2023/11/15 09:45:17;;;;;;;1.70;0.67;;;;;;;11.23;100.00;98314.94;5020596;28;20684;-80
2023/11/15 09:47:46;;;;;;;1.13;0.60;;;;;;;11.34;100.00;98315.06;5021414;28;20241;-80
2023/11/15 09:50:15;;;;;;;2.20;0.70;;;;;;;11.46;100.00;98319.50;5021345;28;20570;-80
2023/11/15 09:52:45;;;;;;;1.13;0.80;;;;;;;11.43;100.00;98319.72;5021672;28;20239;-81
2023/11/15 09:55:12;;;;;;;2.03;0.80;;;;;;;11.37;100.00;98317.50;5020713;28;20248;-79
2023/11/15 09:57:39;;;;;;;2.30;0.70;;;;;;;11.35;100.00;98316.75;5022232;28;20213;-80
2023/11/15 10:00:09;;;;;;;2.30;0.83;;;;;;;11.31;100.00;98331.16;5021767;28;20228;-80
2023/11/15 10:02:36;;;;;;;1.07;0.70;;;;;;;11.21;100.00;98340.66;5019635;28;20278;-80
2023/11/15 10:05:14;;;;;;;3.57;0.90;;;;;;;11.06;100.00;98339.91;5004148;28;20228;-80
2023/11/15 10:07:42;;;;;;;3.50;0.60;;;;;;;10.99;100.00;98351.00;5020806;28;20292;-80
2023/11/15 10:10:19;;;;;;;2.10;0.53;;;;;;;10.88;100.00;98351.72;5022143;28;20215;-80
2023/11/15 10:12:46;;;;;;;2.53;0.60;;;;;;;10.87;100.00;98354.47;5019824;28;20279;-80
2023/11/15 10:15:14;;;;;;;2.33;0.73;;;;;;;10.87;100.00;98351.81;5018399;28;20317;-79
2023/11/15 10:17:42;;;;;;;0.90;0.63;;;;;;;10.95;100.00;98357.47;5020607;28;20209;-80
2023/11/15 10:20:20;;;;;;;0.80;0.60;;;;;;;10.94;100.00;98347.84;5019240;28;20237;-80
2023/11/15 10:22:47;;;;;;;1.47;0.60;;;;;;;10.86;100.00;98352.78;5017917;28;20233;-79
2023/11/15 10:25:14;;;;;;;1.47;0.60;;;;;;;10.88;100.00;98364.13;5017789;28;20236;-79
2023/11/15 10:27:42;;;;;;;1.50;0.50;;;;;;;10.92;100.00;98355.00;5022213;28;20210;-79
2023/11/15 10:30:13;;;;;;;0.93;0.67;;;;;;;10.95;100.00;98362.75;5018502;28;20217;-79
2023/11/15 10:32:40;;;;;;;1.30;0.67;;;;;;;11.09;100.00;98368.81;5018664;28;20258;-80
2023/11/15 10:35:08;;;;;;;1.83;0.73;;;;;;;11.21;100.00;98353.91;5018633;28;20214;-80
2023/11/15 10:37:36;;;;;;;1.50;0.60;;;;;;;11.39;100.00;98350.84;5019309;28;20323;-80
2023/11/15 10:40:03;;;;;;;0.67;0.60;;;;;;;11.52;100.00;98351.69;5017733;28;20225;-80
2023/11/15 10:42:34;;;;;;;2.00;0.50;;;;;;;11.67;100.00;98339.22;5019435;28;20252;-79
2023/11/15 10:45:08;;;;;;;0.70;0.40;;;;;;;11.72;100.00;98347.66;5019680;28;20257;-78
2023/11/15 10:47:37;;;;;;;2.17;0.60;;;;;;;11.85;100.00;98348.50;5017122;28;20318;-82
2023/11/15 10:50:13;;;;;;;1.33;0.70;;;;;;;11.77;100.00;98345.56;5018240;28;20227;-79
2023/11/15 10:52:39;;;;;;;0.90;0.70;;;;;;;11.74;100.00;98337.84;5013737;28;20281;-77
2023/11/15 10:55:08;;;;;;;2.53;0.70;;;;;;;11.87;100.00;98349.25;5016239;28;20222;-78
2023/11/15 10:57:39;;;;;;;2.37;0.70;;;;;;;11.83;100.00;98345.13;5014411;28;20746;-78
2023/11/15 11:00:12;;;;;;;1.80;0.63;;;;;;;11.81;100.00;98341.75;5015006;28;20233;-78
2023/11/15 11:02:41;;;;;;;1.70;0.60;;;;;;;11.84;100.00;98341.50;5015586;28;20225;-78
2023/11/15 11:05:09;;;;;;;0.50;0.50;;;;;;;11.83;100.00;98340.69;5015054;28;20267;-77
2023/11/15 11:07:42;;;;;;;1.53;0.80;;;;;;;11.73;100.00;98338.78;5014807;28;20336;-78
2023/11/15 11:10:16;;;;;;;1.67;0.80;;;;;;;11.72;100.00;98331.78;5014157;28;20258;-78
2023/11/15 11:12:43;;;;;;;1.53;0.80;;;;;;;11.68;100.00;98331.16;5013432;28;20235;-78
2023/11/15 11:15:28;;;;;;;1.30;0.77;;;;;;;11.73;100.00;98334.31;5013504;28;20225;-78
2023/11/15 11:18:11;;;;;;;2.03;0.87;;;;;;;11.84;100.00;98336.22;5014202;28;20587;-78
2023/11/15 11:20:40;;;;;;;1.27;0.70;;;;;;;11.82;100.00;98327.53;5013864;28;20231;-78
2023/11/15 11:23:10;;;;;;;2.97;0.70;;;;;;;11.79;100.00;98327.78;5015758;28;20640;-78
2023/11/15 11:25:39;;;;;;;1.40;0.70;;;;;;;11.70;100.00;98323.09;5014909;28;20220;-77
2023/11/15 11:28:06;;;;;;;1.57;0.80;;;;;;;11.70;100.00;98328.41;5013308;28;20596;-77
2023/11/15 11:30:34;;;;;;;1.70;1.00;;;;;;;11.63;100.00;98322.69;5012707;28;20320;-78
2023/11/15 11:33:13;;;;;;;2.40;1.10;;;;;;;11.77;100.00;98319.94;5013353;28;20210;-78